LOWG

Graz

Airport
ICAO code
LOWG
IATA Code
GRZ
Summary
ICAO Region
EUR
ICAO Territory
Location

Abtissendorf, Styria

Serving
Graz
Elevation
1115 ft
Coordinates
46° 59' 28" N , 15° 26' 23" E
KCC
Metar
Observation
LOWG 280550Z VRB01KT 0450 R16/0650N R34/0550N FZFG VV002 M03/M04 Q1021 TEMPO 0600 FZFG
Station
Graz-Thalerhof-Flughafen
Date/Time
2022-11-28 05:50:00
Wind speed
01 kts
Lowest cloud amount
n/a
Temperature
16°C
Dew point
0°C
Humidity
33%
QNH
1021 hPa
Weather condition
n/a

International airport serving southern Austrian city of Graz.

Climatology

Dry-summer subtropical ”Mediterranean" climate (Köppen climate classification Csa) -

Runways

Designator Length Width Surface Rops
17L/35R 640 30 GRS No/No
17R/35L 760 25 GRS No/No
17C/35C 3000 45 ASP Yes/Yes

Airport map

Aerial View

SKYbrary Partners:

Safety knowledge contributed by: